Time;durP1;ratioP1;P1;durP2;ratioP2;P2;SDS_P1;SDS_P2;PMS_P1;PMS_P2;Temp;Humidity;BMP_temperature;BMP_pressure;BME280_temperature;BME280_humidity;BME280_pressure;Samples;Min_cycle;Max_cycle;Signal;HPM_P1;HPM_P2
2021/09/12 00:02:18;;;;;;;27.70;19.13;;;;;;;;;;5012068;28;20433;-73
2021/09/12 00:04:45;;;;;;;25.83;17.10;;;;;;;;;;5013039;28;20428;-72
2021/09/12 00:07:11;;;;;;;32.63;19.33;;;;;;;;;;5032156;28;20535;-72
2021/09/12 00:09:37;;;;;;;29.77;18.27;;;;;;;;;;5035540;28;20464;-72
2021/09/12 00:12:03;;;;;;;24.43;17.50;;;;;;;;;;5036449;28;20412;-72
2021/09/12 00:14:29;;;;;;;27.30;18.77;;;;;;;;;;5036370;28;20513;-73
2021/09/12 00:16:55;;;;;;;21.10;17.67;;;;;;;;;;5036090;28;20412;-73
2021/09/12 00:19:21;;;;;;;25.17;18.17;;;;;;;;;;5024555;28;20437;-73
2021/09/12 00:21:47;;;;;;;24.87;18.40;;;;;;;;;;5036311;28;20442;-73
2021/09/12 00:24:13;;;;;;;24.80;16.30;;;;;;;;;;5036197;28;20416;-72
2021/09/12 00:26:39;;;;;;;28.80;21.93;;;;;;;;;;5035873;28;20517;-72
2021/09/12 00:29:05;;;;;;;24.50;19.10;;;;;;;;;;5036203;28;20460;-73
2021/09/12 00:31:31;;;;;;;24.10;18.50;;;;;;;;;;5024583;28;20752;-72
2021/09/12 00:33:57;;;;;;;25.90;19.00;;;;;;;;;;5016215;28;20822;-73
2021/09/12 00:36:23;;;;;;;29.03;19.80;;;;;;;;;;5016416;28;20414;-73
2021/09/12 00:38:49;;;;;;;26.00;18.30;;;;;;;;;;5015982;28;20426;-72
2021/09/12 00:41:15;;;;;;;27.67;19.60;;;;;;;;;;5016144;28;20416;-73
2021/09/12 00:43:41;;;;;;;27.87;20.37;;;;;;;;;;5015963;28;20448;-72
2021/09/12 00:46:07;;;;;;;27.00;20.13;;;;;;;;;;5016191;28;20917;-72
2021/09/12 00:48:34;;;;;;;27.57;21.00;;;;;;;;;;5015702;28;20488;-72
2021/09/12 00:51:00;;;;;;;29.10;20.40;;;;;;;;;;5016533;28;20421;-72
2021/09/12 00:53:29;;;;;;;28.23;19.70;;;;;;;;;;5015842;28;20456;-72
2021/09/12 00:55:55;;;;;;;27.20;20.70;;;;;;;;;;5015595;28;20523;-72
2021/09/12 00:58:21;;;;;;;29.50;19.93;;;;;;;;;;5020658;28;20436;-72
2021/09/12 01:00:47;;;;;;;31.10;20.87;;;;;;;;;;5023905;28;20423;-73
2021/09/12 01:03:13;;;;;;;32.03;22.87;;;;;;;;;;5015656;28;20480;-72
2021/09/12 01:05:39;;;;;;;29.57;22.00;;;;;;;;;;5023351;28;20436;-73
2021/09/12 01:08:06;;;;;;;28.87;21.50;;;;;;;;;;5034804;28;20421;-72
2021/09/12 01:10:32;;;;;;;28.63;18.00;;;;;;;;;;5022750;28;20444;-73
2021/09/12 01:12:58;;;;;;;30.80;22.43;;;;;;;;;;5015845;28;20417;-72
2021/09/12 01:15:25;;;;;;;29.60;20.57;;;;;;;;;;5015577;28;20807;-73
2021/09/12 01:17:51;;;;;;;31.37;22.57;;;;;;;;;;5014997;28;20442;-73
2021/09/12 01:20:17;;;;;;;27.90;20.70;;;;;;;;;;5014314;28;20516;-73
2021/09/12 01:22:45;;;;;;;31.43;21.10;;;;;;;;;;5015562;28;20885;-72
2021/09/12 01:25:11;;;;;;;28.57;20.70;;;;;;;;;;5015536;28;20508;-73
2021/09/12 01:27:37;;;;;;;29.87;20.73;;;;;;;;;;5015282;28;20512;-73
2021/09/12 01:30:04;;;;;;;30.70;22.03;;;;;;;;;;5027654;28;20440;-73
2021/09/12 01:32:30;;;;;;;34.60;23.33;;;;;;;;;;5015165;28;20417;-73
2021/09/12 01:34:57;;;;;;;28.17;22.00;;;;;;;;;;5015038;28;20461;-72
2021/09/12 01:37:23;;;;;;;30.47;21.57;;;;;;;;;;5015733;28;20418;-74
2021/09/12 01:39:49;;;;;;;26.50;21.27;;;;;;;;;;5014983;28;20830;-72
2021/09/12 01:42:15;;;;;;;36.27;23.30;;;;;;;;;;5014894;28;20479;-74
2021/09/12 01:44:45;;;;;;;28.20;22.03;;;;;;;;;;5014924;28;20413;-74
2021/09/12 01:47:11;;;;;;;30.93;22.83;;;;;;;;;;5014723;28;20417;-74
2021/09/12 01:49:37;;;;;;;29.10;21.63;;;;;;;;;;5013291;28;20504;-75
2021/09/12 01:52:03;;;;;;;27.87;21.10;;;;;;;;;;5014797;28;20525;-73
2021/09/12 01:54:29;;;;;;;32.47;21.60;;;;;;;;;;5014463;28;21116;-74
2021/09/12 01:56:55;;;;;;;27.77;20.80;;;;;;;;;;5014446;28;20501;-73
2021/09/12 01:59:21;;;;;;;29.57;20.50;;;;;;;;;;5028120;28;20507;-74
2021/09/12 02:01:47;;;;;;;31.20;22.37;;;;;;;;;;5034649;28;20817;-73
2021/09/12 02:04:13;;;;;;;32.17;23.50;;;;;;;;;;5034334;28;20447;-74
2021/09/12 02:06:39;;;;;;;31.17;22.23;;;;;;;;;;5033938;28;20445;-73
2021/09/12 02:09:05;;;;;;;31.57;22.30;;;;;;;;;;5034350;28;20846;-72
2021/09/12 02:11:32;;;;;;;30.53;22.23;;;;;;;;;;5034311;28;20447;-72
2021/09/12 02:13:58;;;;;;;33.97;24.47;;;;;;;;;;5034069;28;20448;-72
2021/09/12 02:16:24;;;;;;;34.93;24.43;;;;;;;;;;5034521;28;20412;-73
2021/09/12 02:18:53;;;;;;;34.77;24.00;;;;;;;;;;5021098;28;20440;-73
2021/09/12 02:21:19;;;;;;;29.03;21.93;;;;;;;;;;5014504;28;20416;-74
2021/09/12 02:23:45;;;;;;;35.93;22.90;;;;;;;;;;5014288;28;20421;-73
2021/09/12 02:26:11;;;;;;;36.57;23.30;;;;;;;;;;5014218;28;20414;-73
2021/09/12 02:28:37;;;;;;;31.90;22.97;;;;;;;;;;5015167;28;20902;-74
2021/09/12 02:31:03;;;;;;;29.77;23.20;;;;;;;;;;5025681;28;20414;-72
2021/09/12 02:33:29;;;;;;;33.90;23.23;;;;;;;;;;5014339;28;20471;-73
2021/09/12 02:35:55;;;;;;;31.77;23.60;;;;;;;;;;5014096;28;20465;-72
2021/09/12 02:38:21;;;;;;;35.03;24.50;;;;;;;;;;5013723;28;20410;-71
2021/09/12 02:40:47;;;;;;;38.50;25.93;;;;;;;;;;5013733;28;20414;-72
2021/09/12 02:43:13;;;;;;;36.50;23.70;;;;;;;;;;5014257;28;20416;-73
2021/09/12 02:45:39;;;;;;;35.10;23.40;;;;;;;;;;5013940;28;20414;-72
2021/09/12 02:48:06;;;;;;;39.40;24.47;;;;;;;;;;5013461;28;20414;-72
2021/09/12 02:50:32;;;;;;;38.10;24.47;;;;;;;;;;5013661;28;20529;-72
2021/09/12 02:52:58;;;;;;;38.87;25.17;;;;;;;;;;5013871;28;20429;-74
2021/09/12 02:55:24;;;;;;;35.17;26.40;;;;;;;;;;5013726;28;20493;-72
2021/09/12 02:57:50;;;;;;;33.33;24.10;;;;;;;;;;5015154;28;20428;-73
2021/09/12 03:00:16;;;;;;;38.30;25.70;;;;;;;;;;5033371;28;20439;-73
2021/09/12 03:02:42;;;;;;;37.50;27.50;;;;;;;;;;5033102;28;20409;-72
2021/09/12 03:05:08;;;;;;;33.53;22.80;;;;;;;;;;5033335;28;20439;-72
2021/09/12 03:07:34;;;;;;;34.23;24.97;;;;;;;;;;5032792;28;20440;-73
2021/09/12 03:10:00;;;;;;;43.07;26.00;;;;;;;;;;5033124;28;20440;-73
2021/09/12 03:12:26;;;;;;;38.17;25.83;;;;;;;;;;5033263;28;20424;-73
2021/09/12 03:14:52;;;;;;;34.43;24.47;;;;;;;;;;5032975;28;20987;-72
2021/09/12 03:17:19;;;;;;;35.60;24.13;;;;;;;;;;5032806;28;20499;-74
2021/09/12 03:19:45;;;;;;;40.10;28.10;;;;;;;;;;5013490;28;20456;-73
2021/09/12 03:22:11;;;;;;;38.90;27.13;;;;;;;;;;5013405;28;20416;-74
2021/09/12 03:24:37;;;;;;;37.77;25.77;;;;;;;;;;5013563;28;20593;-73
2021/09/12 03:27:03;;;;;;;39.33;27.07;;;;;;;;;;5012818;28;20413;-71
2021/09/12 03:29:29;;;;;;;37.07;26.87;;;;;;;;;;5013669;28;20576;-73
2021/09/12 03:31:55;;;;;;;38.43;25.43;;;;;;;;;;5013181;28;20417;-73
2021/09/12 03:34:21;;;;;;;48.57;28.23;;;;;;;;;;5013270;28;20457;-72
2021/09/12 03:36:47;;;;;;;36.70;25.30;;;;;;;;;;5012769;28;20414;-73
2021/09/12 03:39:13;;;;;;;38.20;25.87;;;;;;;;;;5013199;28;20434;-73
2021/09/12 03:41:39;;;;;;;40.63;27.33;;;;;;;;;;5013271;28;20803;-73
2021/09/12 03:44:05;;;;;;;37.10;27.10;;;;;;;;;;5016023;28;20414;-72
2021/09/12 03:46:31;;;;;;;39.93;27.27;;;;;;;;;;5017208;28;20418;-73
2021/09/12 03:48:57;;;;;;;37.93;25.97;;;;;;;;;;5017023;28;20532;-73
2021/09/12 03:51:23;;;;;;;35.73;26.10;;;;;;;;;;5017142;28;20425;-72
2021/09/12 03:53:49;;;;;;;39.03;27.60;;;;;;;;;;5017265;28;20421;-74
2021/09/12 03:56:15;;;;;;;39.50;24.40;;;;;;;;;;5016926;28;20424;-74
2021/09/12 03:58:41;;;;;;;39.07;26.90;;;;;;;;;;5024567;28;20412;-73
2021/09/12 04:01:07;;;;;;;41.33;27.60;;;;;;;;;;5036671;28;20762;-73
2021/09/12 04:03:33;;;;;;;45.13;26.97;;;;;;;;;;5036785;28;20950;-74
2021/09/12 04:05:59;;;;;;;37.90;27.00;;;;;;;;;;5036585;28;20444;-74
2021/09/12 04:08:25;;;;;;;44.50;31.27;;;;;;;;;;5036422;28;20424;-73
2021/09/12 04:10:51;;;;;;;41.40;27.90;;;;;;;;;;5021257;28;20452;-73
2021/09/12 04:13:17;;;;;;;42.37;26.40;;;;;;;;;;5016875;28;20515;-73
2021/09/12 04:15:43;;;;;;;41.27;27.50;;;;;;;;;;5016416;28;20457;-73
2021/09/12 04:18:09;;;;;;;39.13;25.73;;;;;;;;;;5016711;28;20440;-72
2021/09/12 04:20:35;;;;;;;40.27;27.47;;;;;;;;;;5030712;28;21010;-73
2021/09/12 04:23:01;;;;;;;35.40;25.13;;;;;;;;;;5036502;28;20416;-73
2021/09/12 04:25:27;;;;;;;33.57;25.47;;;;;;;;;;5036058;28;20524;-73
2021/09/12 04:27:53;;;;;;;38.03;26.67;;;;;;;;;;5036114;28;20420;-74
2021/09/12 04:30:19;;;;;;;35.10;25.73;;;;;;;;;;5034246;28;20463;-73
2021/09/12 04:32:45;;;;;;;36.60;25.47;;;;;;;;;;5016553;28;20414;-73
2021/09/12 04:35:11;;;;;;;37.20;26.20;;;;;;;;;;5016685;28;20457;-72
2021/09/12 04:37:38;;;;;;;34.87;25.63;;;;;;;;;;5015961;28;20424;-73
2021/09/12 04:40:04;;;;;;;37.27;26.13;;;;;;;;;;5016504;28;20480;-73
2021/09/12 04:42:30;;;;;;;39.53;27.93;;;;;;;;;;5015130;28;20433;-73
2021/09/12 04:44:56;;;;;;;39.97;28.10;;;;;;;;;;5016159;28;20429;-74
2021/09/12 04:47:22;;;;;;;40.60;26.30;;;;;;;;;;5015694;28;20921;-74
2021/09/12 04:49:48;;;;;;;33.97;26.63;;;;;;;;;;5014722;28;20449;-73
2021/09/12 04:52:14;;;;;;;40.10;27.27;;;;;;;;;;5016023;28;21022;-74
2021/09/12 04:54:41;;;;;;;35.33;25.87;;;;;;;;;;5014786;28;20452;-73
2021/09/12 04:57:07;;;;;;;36.70;27.33;;;;;;;;;;5014154;28;20767;-72
2021/09/12 04:59:36;;;;;;;39.10;26.33;;;;;;;;;;5031156;28;20506;-73
2021/09/12 05:02:02;;;;;;;34.20;25.20;;;;;;;;;;5035690;28;20428;-73
2021/09/12 05:04:28;;;;;;;36.20;26.47;;;;;;;;;;5035641;28;20428;-73
2021/09/12 05:06:54;;;;;;;37.80;27.00;;;;;;;;;;5034883;28;20445;-72
2021/09/12 05:09:23;;;;;;;35.20;25.10;;;;;;;;;;5035422;28;20441;-72
2021/09/12 05:11:49;;;;;;;36.57;25.30;;;;;;;;;;5035136;28;20423;-72
2021/09/12 05:14:15;;;;;;;34.73;26.73;;;;;;;;;;5035253;28;20847;-74
2021/09/12 05:16:41;;;;;;;36.90;25.60;;;;;;;;;;5035000;28;20471;-74
2021/09/12 05:19:07;;;;;;;39.00;27.23;;;;;;;;;;5023546;28;20941;-74
2021/09/12 05:21:33;;;;;;;32.47;23.87;;;;;;;;;;5035313;28;20409;-73
2021/09/12 05:23:59;;;;;;;32.63;25.00;;;;;;;;;;5035251;28;20463;-73
2021/09/12 05:26:25;;;;;;;39.80;26.10;;;;;;;;;;5035511;28;20408;-73
2021/09/12 05:28:51;;;;;;;37.57;25.60;;;;;;;;;;5031749;28;20432;-73
2021/09/12 05:31:17;;;;;;;31.93;23.80;;;;;;;;;;5015348;28;20496;-73
2021/09/12 05:33:43;;;;;;;34.60;24.70;;;;;;;;;;5015484;28;20414;-72
2021/09/12 05:36:09;;;;;;;34.07;24.07;;;;;;;;;;5014910;28;20476;-73
2021/09/12 05:38:35;;;;;;;34.20;24.60;;;;;;;;;;5014688;28;20413;-73
2021/09/12 05:41:01;;;;;;;36.43;25.30;;;;;;;;;;5015274;28;20413;-72
2021/09/12 05:43:27;;;;;;;36.97;26.37;;;;;;;;;;5015085;28;20410;-71
2021/09/12 05:45:53;;;;;;;40.13;28.00;;;;;;;;;;5013812;28;20925;-72
2021/09/12 05:48:19;;;;;;;38.47;26.90;;;;;;;;;;5014333;28;20430;-71
2021/09/12 05:50:45;;;;;;;38.90;26.40;;;;;;;;;;5015272;28;20449;-72
2021/09/12 05:53:13;;;;;;;34.60;25.73;;;;;;;;;;5014881;28;20422;-73
2021/09/12 05:55:39;;;;;;;33.37;26.60;;;;;;;;;;5014579;28;20799;-73
2021/09/12 05:58:05;;;;;;;38.33;27.40;;;;;;;;;;5016981;28;20444;-74
2021/09/12 06:00:31;;;;;;;37.53;27.57;;;;;;;;;;5025381;28;20454;-73
2021/09/12 06:02:57;;;;;;;35.23;26.43;;;;;;;;;;5014505;28;20944;-72
2021/09/12 06:05:23;;;;;;;36.33;25.37;;;;;;;;;;5019656;28;20474;-74
2021/09/12 06:07:49;;;;;;;35.07;24.93;;;;;;;;;;5033787;28;20412;-73
2021/09/12 06:10:15;;;;;;;35.60;26.40;;;;;;;;;;5023790;28;20437;-72
2021/09/12 06:12:41;;;;;;;31.70;25.70;;;;;;;;;;5014267;28;20418;-71
2021/09/12 06:15:07;;;;;;;33.63;23.70;;;;;;;;;;5014398;28;20472;-73
2021/09/12 06:17:34;;;;;;;34.53;23.67;;;;;;;;;;5013783;28;20417;-74
2021/09/12 06:20:00;;;;;;;32.97;23.73;;;;;;;;;;5014317;28;20456;-74
2021/09/12 06:22:26;;;;;;;33.43;25.80;;;;;;;;;;5014129;28;20413;-73
2021/09/12 06:24:52;;;;;;;36.70;25.23;;;;;;;;;;5014784;28;20425;-74
2021/09/12 06:27:18;;;;;;;34.00;23.90;;;;;;;;;;5013960;28;20452;-72
2021/09/12 06:29:44;;;;;;;30.33;24.37;;;;;;;;;;5014958;28;20464;-73
2021/09/12 06:32:10;;;;;;;37.97;24.20;;;;;;;;;;5014122;28;20433;-73
2021/09/12 06:34:36;;;;;;;32.27;24.30;;;;;;;;;;5014078;28;20468;-73
2021/09/12 06:37:02;;;;;;;31.97;24.77;;;;;;;;;;5013880;28;20413;-72
2021/09/12 06:39:28;;;;;;;34.67;24.10;;;;;;;;;;5014163;28;20922;-73
2021/09/12 06:41:54;;;;;;;34.10;24.60;;;;;;;;;;5012548;28;20428;-73
2021/09/12 06:44:20;;;;;;;32.83;23.67;;;;;;;;;;5014368;28;20989;-73
2021/09/12 06:46:46;;;;;;;30.20;23.43;;;;;;;;;;5013513;28;20429;-73
2021/09/12 06:49:12;;;;;;;29.97;22.90;;;;;;;;;;5012498;28;20452;-73
2021/09/12 06:51:38;;;;;;;31.87;23.87;;;;;;;;;;5016344;28;20418;-74
2021/09/12 06:54:04;;;;;;;30.07;22.73;;;;;;;;;;5023626;28;20958;-75
2021/09/12 06:56:30;;;;;;;33.60;23.50;;;;;;;;;;5013677;28;20464;-73
2021/09/12 06:58:56;;;;;;;30.53;22.80;;;;;;;;;;5022983;28;20440;-74
2021/09/12 07:01:22;;;;;;;31.80;23.07;;;;;;;;;;5033601;28;20412;-74
2021/09/12 07:03:48;;;;;;;33.13;23.53;;;;;;;;;;5033641;28;20905;-74
2021/09/12 07:06:14;;;;;;;31.30;24.30;;;;;;;;;;5033143;28;20439;-73
2021/09/12 07:08:40;;;;;;;29.73;21.90;;;;;;;;;;5032863;28;20447;-72
2021/09/12 07:11:07;;;;;;;30.57;23.70;;;;;;;;;;5033304;28;20417;-74
2021/09/12 07:13:33;;;;;;;30.80;23.20;;;;;;;;;;5033336;28;20418;-73
2021/09/12 07:15:59;;;;;;;28.60;22.57;;;;;;;;;;5033162;28;20456;-71
2021/09/12 07:18:25;;;;;;;31.77;22.20;;;;;;;;;;5023062;28;20421;-73
2021/09/12 07:20:51;;;;;;;28.67;22.57;;;;;;;;;;5013214;28;20771;-71
2021/09/12 07:23:17;;;;;;;27.73;20.93;;;;;;;;;;5013348;28;20418;-72
2021/09/12 07:25:46;;;;;;;32.00;21.90;;;;;;;;;;5013599;28;20419;-73
2021/09/12 07:28:12;;;;;;;28.77;21.73;;;;;;;;;;5013066;28;20779;-73
2021/09/12 07:30:38;;;;;;;29.27;21.63;;;;;;;;;;5013342;28;20445;-74
2021/09/12 07:33:04;;;;;;;28.23;22.13;;;;;;;;;;5011843;28;20425;-73
2021/09/12 07:35:30;;;;;;;30.27;20.83;;;;;;;;;;5013180;28;20460;-74
2021/09/12 07:37:56;;;;;;;31.03;20.97;;;;;;;;;;5012928;28;20413;-74
2021/09/12 07:40:22;;;;;;;23.53;18.27;;;;;;;;;;5013350;28;20425;-74
2021/09/12 07:42:49;;;;;;;26.43;20.53;;;;;;;;;;5013347;28;20409;-74
2021/09/12 07:45:15;;;;;;;24.40;19.30;;;;;;;;;;5011746;28;20434;-71
2021/09/12 07:47:41;;;;;;;27.70;21.40;;;;;;;;;;5012993;28;20416;-75
2021/09/12 07:50:07;;;;;;;27.70;21.03;;;;;;;;;;5013027;28;20465;-73
2021/09/12 07:52:33;;;;;;;24.40;20.10;;;;;;;;;;5013181;28;20449;-72
2021/09/12 07:54:59;;;;;;;27.90;21.00;;;;;;;;;;5013066;28;20461;-74
2021/09/12 07:57:25;;;;;;;28.63;20.37;;;;;;;;;;5012670;28;20450;-73
2021/09/12 07:59:51;;;;;;;25.87;19.97;;;;;;;;;;5031178;28;20464;-73
2021/09/12 08:02:17;;;;;;;30.63;20.43;;;;;;;;;;5031659;28;20424;-72
2021/09/12 08:04:43;;;;;;;26.30;20.00;;;;;;;;;;5032669;28;20828;-74
2021/09/12 08:07:09;;;;;;;28.63;19.20;;;;;;;;;;5024238;28;20437;-72
2021/09/12 08:09:35;;;;;;;25.43;20.63;;;;;;;;;;5014196;28;20435;-73
2021/09/12 08:12:01;;;;;;;32.43;21.10;;;;;;;;;;5024447;28;20412;-73
2021/09/12 08:14:27;;;;;;;34.70;21.67;;;;;;;;;;5016160;28;20461;-74
2021/09/12 08:16:54;;;;;;;29.67;21.27;;;;;;;;;;5024656;28;20922;-72
2021/09/12 08:19:19;;;;;;;26.23;20.57;;;;;;;;;;5020423;28;20453;-72
2021/09/12 08:21:45;;;;;;;27.80;20.90;;;;;;;;;;5032705;28;20423;-72
2021/09/12 08:24:12;;;;;;;28.17;20.20;;;;;;;;;;5032514;28;20897;-72
2021/09/12 08:26:38;;;;;;;30.00;20.50;;;;;;;;;;5025670;28;20499;-74
2021/09/12 08:29:04;;;;;;;24.90;19.97;;;;;;;;;;5018394;28;20876;-72
2021/09/12 08:31:30;;;;;;;26.57;19.23;;;;;;;;;;5021566;28;20521;-73
2021/09/12 08:33:56;;;;;;;25.30;19.07;;;;;;;;;;5012496;28;20437;-74
2021/09/12 08:36:22;;;;;;;24.20;19.07;;;;;;;;;;5012847;28;20437;-74
2021/09/12 08:38:48;;;;;;;25.83;20.63;;;;;;;;;;5012076;28;20483;-74
2021/09/12 08:41:14;;;;;;;24.00;19.53;;;;;;;;;;5012603;28;20457;-73
2021/09/12 08:43:41;;;;;;;22.97;18.20;;;;;;;;;;5012320;28;20435;-73
2021/09/12 08:46:07;;;;;;;23.27;18.70;;;;;;;;;;5012537;28;20425;-73
2021/09/12 08:48:35;;;;;;;25.37;19.23;;;;;;;;;;5011963;28;20441;-72
2021/09/12 08:51:01;;;;;;;25.50;19.80;;;;;;;;;;5012679;28;20521;-74
2021/09/12 08:53:27;;;;;;;22.50;18.97;;;;;;;;;;5012206;28;20512;-74
2021/09/12 08:55:54;;;;;;;25.33;19.70;;;;;;;;;;5012261;28;20880;-72
2021/09/12 08:58:20;;;;;;;24.73;19.73;;;;;;;;;;5012027;28;20426;-73
2021/09/12 09:00:46;;;;;;;26.93;20.70;;;;;;;;;;5012200;28;20465;-73
2021/09/12 09:03:12;;;;;;;27.57;20.70;;;;;;;;;;5012050;28;20503;-74
2021/09/12 09:05:43;;;;;;;30.40;21.03;;;;;;;;;;5025644;28;20431;-73
2021/09/12 09:08:09;;;;;;;27.60;20.40;;;;;;;;;;5012455;28;20457;-74
2021/09/12 09:10:39;;;;;;;28.83;21.17;;;;;;;;;;5011946;28;20807;-73
2021/09/12 09:13:23;;;;;;;24.87;19.07;;;;;;;;;;5018982;28;20519;-73
2021/09/12 09:15:49;;;;;;;24.00;18.73;;;;;;;;;;5025867;28;20616;-73
2021/09/12 09:18:15;;;;;;;23.83;18.63;;;;;;;;;;5011631;28;20417;-74
2021/09/12 09:20:41;;;;;;;24.07;19.17;;;;;;;;;;5011818;28;20810;-73
2021/09/12 09:23:08;;;;;;;24.17;20.03;;;;;;;;;;5021154;28;20440;-73
2021/09/12 09:25:34;;;;;;;26.70;18.90;;;;;;;;;;5011642;28;20449;-74
2021/09/12 09:28:03;;;;;;;23.87;18.40;;;;;;;;;;5011259;28;20426;-74
2021/09/12 09:30:32;;;;;;;23.87;18.03;;;;;;;;;;5024256;28;20472;-72
2021/09/12 09:33:19;;;;;;;23.23;17.27;;;;;;;;;;5011761;28;20814;-74
2021/09/12 09:35:53;;;;;;;20.23;16.87;;;;;;;;;;5012678;28;20497;-74
2021/09/12 09:38:20;;;;;;;21.07;18.10;;;;;;;;;;5016712;28;20480;-74
2021/09/12 09:41:05;;;;;;;22.30;16.53;;;;;;;;;;5010784;28;20438;-74
2021/09/12 09:43:37;;;;;;;23.20;16.00;;;;;;;;;;5011447;28;20405;-74
2021/09/12 09:46:03;;;;;;;20.03;16.57;;;;;;;;;;5011452;28;20417;-73
2021/09/12 09:48:38;;;;;;;24.87;17.63;;;;;;;;;;5010913;28;20415;-73
2021/09/12 09:51:04;;;;;;;21.43;16.47;;;;;;;;;;5011419;28;20416;-73
2021/09/12 09:53:34;;;;;;;22.40;17.20;;;;;;;;;;5011329;28;20899;-72
2021/09/12 09:56:01;;;;;;;19.93;16.93;;;;;;;;;;5011163;28;20467;-74
2021/09/12 09:58:27;;;;;;;21.40;18.13;;;;;;;;;;5010762;28;20942;-73
2021/09/12 10:00:53;;;;;;;19.90;16.60;;;;;;;;;;5011152;28;20441;-74
2021/09/12 10:03:19;;;;;;;18.87;15.70;;;;;;;;;;5011034;28;20449;-74
2021/09/12 10:05:46;;;;;;;15.43;13.87;;;;;;;;;;5026475;28;20435;-73
2021/09/12 10:08:13;;;;;;;16.90;14.40;;;;;;;;;;5010889;28;20431;-74
2021/09/12 10:10:39;;;;;;;19.00;13.47;;;;;;;;;;5010774;28;20436;-74
2021/09/12 10:13:07;;;;;;;15.73;13.13;;;;;;;;;;5010811;28;20506;-74
2021/09/12 10:15:34;;;;;;;15.33;12.20;;;;;;;;;;5010471;28;20464;-73
2021/09/12 10:18:00;;;;;;;15.00;13.40;;;;;;;;;;5009007;28;20449;-74
2021/09/12 10:20:28;;;;;;;15.73;14.20;;;;;;;;;;5010567;28;20845;-73
2021/09/12 10:23:01;;;;;;;16.63;13.10;;;;;;;;;;5020150;28;20819;-72
2021/09/12 10:25:28;;;;;;;15.67;12.90;;;;;;;;;;5010957;28;20426;-73
2021/09/12 10:27:57;;;;;;;15.13;13.63;;;;;;;;;;5010976;28;20428;-73
2021/09/12 10:30:37;;;;;;;17.10;15.00;;;;;;;;;;5010899;28;20433;-74
2021/09/12 10:33:06;;;;;;;15.17;13.50;;;;;;;;;;5021739;28;20423;-74
2021/09/12 10:35:37;;;;;;;17.53;13.20;;;;;;;;;;5012461;28;20830;-73
2021/09/12 10:38:04;;;;;;;14.33;12.90;;;;;;;;;;5010513;28;20425;-75
2021/09/12 10:40:45;;;;;;;13.90;12.50;;;;;;;;;;5010432;28;20429;-73
2021/09/12 10:43:31;;;;;;;15.27;12.80;;;;;;;;;;5011029;28;20494;-73
2021/09/12 10:45:57;;;;;;;16.70;11.23;;;;;;;;;;5010795;28;20457;-74
2021/09/12 10:48:23;;;;;;;11.73;10.63;;;;;;;;;;5010430;28;20422;-75
2021/09/12 10:50:50;;;;;;;13.43;10.60;;;;;;;;;;5010426;28;20441;-74
2021/09/12 10:53:16;;;;;;;13.93;10.80;;;;;;;;;;5010387;28;20429;-73
2021/09/12 10:55:58;;;;;;;14.20;11.33;;;;;;;;;;5008533;28;20504;-74
2021/09/12 10:58:26;;;;;;;12.67;11.30;;;;;;;;;;5009901;28;20414;-75
2021/09/12 11:00:52;;;;;;;13.70;12.20;;;;;;;;;;5010163;28;20456;-75
2021/09/12 11:03:18;;;;;;;13.23;11.97;;;;;;;;;;5010051;28;20504;-74
2021/09/12 11:05:44;;;;;;;12.80;11.50;;;;;;;;;;5025201;28;20481;-76
2021/09/12 11:08:10;;;;;;;13.90;12.47;;;;;;;;;;5029312;28;20921;-73
2021/09/12 11:10:37;;;;;;;17.00;13.10;;;;;;;;;;5029682;28;20444;-74
2021/09/12 11:13:03;;;;;;;16.90;12.90;;;;;;;;;;5029703;28;20416;-74
2021/09/12 11:15:30;;;;;;;21.07;14.17;;;;;;;;;;5029347;28;20475;-75
2021/09/12 11:17:56;;;;;;;17.10;15.33;;;;;;;;;;5024223;28;20409;-75
2021/09/12 11:20:22;;;;;;;17.13;15.40;;;;;;;;;;5009638;28;20433;-73
2021/09/12 11:22:52;;;;;;;15.37;12.97;;;;;;;;;;5019521;28;20507;-74
2021/09/12 11:25:21;;;;;;;14.67;13.23;;;;;;;;;;5009741;28;20441;-75
2021/09/12 11:28:00;;;;;;;15.80;11.63;;;;;;;;;;5009197;28;20477;-75
2021/09/12 11:30:26;;;;;;;12.57;11.20;;;;;;;;;;5009810;28;20433;-73
2021/09/12 11:32:52;;;;;;;11.60;10.23;;;;;;;;;;5008167;28;20433;-72
2021/09/12 11:35:18;;;;;;;11.07;9.97;;;;;;;;;;5009586;28;20507;-73
2021/09/12 11:37:44;;;;;;;9.80;8.90;;;;;;;;;;5009224;28;20441;-75
2021/09/12 11:40:10;;;;;;;10.17;9.27;;;;;;;;;;5009531;28;20524;-75
2021/09/12 11:42:37;;;;;;;7.87;7.17;;;;;;;;;;5009622;28;20417;-73
2021/09/12 11:45:14;;;;;;;9.97;8.03;;;;;;;;;;5009512;28;20429;-73
2021/09/12 11:47:40;;;;;;;8.93;8.10;;;;;;;;;;5009019;28;20421;-75
2021/09/12 11:50:10;;;;;;;9.73;8.33;;;;;;;;;;5009299;28;20926;-75
2021/09/12 11:52:40;;;;;;;9.07;8.27;;;;;;;;;;5009454;28;20456;-74
2021/09/12 11:55:18;;;;;;;9.20;8.30;;;;;;;;;;5009227;28;20468;-74
2021/09/12 11:57:44;;;;;;;9.20;8.30;;;;;;;;;;5008931;28;20417;-72
2021/09/12 12:00:11;;;;;;;10.10;9.20;;;;;;;;;;5009248;28;20459;-74
2021/09/12 12:02:37;;;;;;;8.33;7.63;;;;;;;;;;5009181;28;20416;-73
2021/09/12 12:05:04;;;;;;;11.70;10.60;;;;;;;;;;5016134;28;20453;-74
2021/09/12 12:07:37;;;;;;;9.50;8.60;;;;;;;;;;5038129;28;20439;-74
2021/09/12 12:10:04;;;;;;;9.87;8.27;;;;;;;;;;5032955;28;20436;-73
2021/09/12 12:12:36;;;;;;;9.20;8.00;;;;;;;;;;5032698;28;20420;-73
2021/09/12 12:15:07;;;;;;;8.67;7.70;;;;;;;;;;5033258;28;20500;-75
2021/09/12 12:17:33;;;;;;;10.10;9.07;;;;;;;;;;5030678;28;20463;-74
2021/09/12 12:19:59;;;;;;;7.83;7.13;;;;;;;;;;5013022;28;20437;-73
2021/09/12 12:22:34;;;;;;;7.80;7.20;;;;;;;;;;5021270;28;20425;-74
2021/09/12 12:25:00;;;;;;;10.03;6.90;;;;;;;;;;5012986;28;20423;-74
2021/09/12 12:27:27;;;;;;;7.57;6.90;;;;;;;;;;5012720;28;20428;-75
2021/09/12 12:30:04;;;;;;;8.13;7.47;;;;;;;;;;5013242;28;20444;-73
2021/09/12 12:32:31;;;;;;;7.87;7.17;;;;;;;;;;5012969;28;21166;-74
2021/09/12 12:34:58;;;;;;;7.73;6.90;;;;;;;;;;5012887;28;20465;-75
2021/09/12 12:37:27;;;;;;;7.70;6.90;;;;;;;;;;5012399;28;20418;-74
2021/09/12 12:40:01;;;;;;;7.53;6.87;;;;;;;;;;5012391;28;20516;-73
2021/09/12 12:42:40;;;;;;;7.37;6.70;;;;;;;;;;5012586;28;20422;-74
2021/09/12 12:45:25;;;;;;;7.50;6.80;;;;;;;;;;5012533;28;20425;-74
2021/09/12 12:47:54;;;;;;;8.17;7.50;;;;;;;;;;5012116;28;20421;-74
2021/09/12 12:50:31;;;;;;;8.83;7.30;;;;;;;;;;5012237;28;20433;-73
2021/09/12 12:53:16;;;;;;;8.07;7.33;;;;;;;;;;5012605;28;20767;-73
2021/09/12 12:55:43;;;;;;;9.63;8.73;;;;;;;;;;5012658;28;20472;-74
2021/09/12 12:58:14;;;;;;;9.53;7.50;;;;;;;;;;5011826;28;20440;-73
2021/09/12 13:00:40;;;;;;;9.40;7.57;;;;;;;;;;5012284;28;20445;-74
2021/09/12 13:03:06;;;;;;;9.70;8.80;;;;;;;;;;5012424;28;20445;-76
2021/09/12 13:05:35;;;;;;;9.47;8.57;;;;;;;;;;5024279;28;20432;-75
2021/09/12 13:08:05;;;;;;;8.10;7.33;;;;;;;;;;5032750;28;20455;-74
2021/09/12 13:10:32;;;;;;;9.10;8.40;;;;;;;;;;5031833;28;21013;-75
2021/09/12 13:12:59;;;;;;;7.10;6.50;;;;;;;;;;5031722;28;20427;-76
2021/09/12 13:15:26;;;;;;;8.00;6.87;;;;;;;;;;5030942;28;20989;-75
2021/09/12 13:17:59;;;;;;;7.30;6.70;;;;;;;;;;5026179;28;20552;-75
2021/09/12 13:20:25;;;;;;;7.37;6.40;;;;;;;;;;5010322;28;20520;-74
2021/09/12 13:22:51;;;;;;;8.00;7.20;;;;;;;;;;5021335;28;20418;-76
2021/09/12 13:25:17;;;;;;;7.07;6.47;;;;;;;;;;5011751;28;20450;-73
2021/09/12 13:27:43;;;;;;;6.83;6.23;;;;;;;;;;5011408;28;20774;-73
2021/09/12 13:30:10;;;;;;;7.90;7.20;;;;;;;;;;5024303;28;20495;-75
2021/09/12 13:32:36;;;;;;;8.10;7.40;;;;;;;;;;5011978;28;20428;-76
2021/09/12 13:35:02;;;;;;;8.00;7.00;;;;;;;;;;5011614;28;20535;-74
2021/09/12 13:37:28;;;;;;;8.13;7.37;;;;;;;;;;5011541;28;20428;-72
2021/09/12 13:39:54;;;;;;;8.47;7.67;;;;;;;;;;5011662;28;20450;-76
2021/09/12 13:42:20;;;;;;;8.40;7.60;;;;;;;;;;5011545;28;20767;-75
2021/09/12 13:44:46;;;;;;;7.23;6.57;;;;;;;;;;5011535;28;20425;-72
2021/09/12 13:47:12;;;;;;;10.33;8.53;;;;;;;;;;5011346;28;20413;-73
2021/09/12 13:49:38;;;;;;;10.20;7.83;;;;;;;;;;5011327;28;20985;-74
2021/09/12 13:52:04;;;;;;;8.80;7.87;;;;;;;;;;5011519;28;20453;-73
2021/09/12 13:54:31;;;;;;;9.13;8.33;;;;;;;;;;5011088;28;20602;-73
2021/09/12 13:56:57;;;;;;;9.00;8.20;;;;;;;;;;5010886;28;20414;-73
2021/09/12 13:59:23;;;;;;;8.77;8.00;;;;;;;;;;5011119;28;20440;-75
2021/09/12 14:01:49;;;;;;;8.30;7.60;;;;;;;;;;5011346;28;20457;-74
2021/09/12 14:04:15;;;;;;;9.63;8.70;;;;;;;;;;5010990;28;20432;-73
2021/09/12 14:06:41;;;;;;;9.27;8.37;;;;;;;;;;5026557;28;20923;-74
2021/09/12 14:09:07;;;;;;;9.93;9.00;;;;;;;;;;5010987;28;20436;-72
2021/09/12 14:11:33;;;;;;;10.10;9.10;;;;;;;;;;5011531;28;21272;-75
2021/09/12 14:13:59;;;;;;;10.17;8.63;;;;;;;;;;5010913;28;20415;-74
2021/09/12 14:16:25;;;;;;;9.77;8.87;;;;;;;;;;5010810;28;20464;-72
2021/09/12 14:18:51;;;;;;;9.17;8.37;;;;;;;;;;5008883;28;20481;-73
2021/09/12 14:21:17;;;;;;;7.93;7.33;;;;;;;;;;5014711;28;20514;-74